sensor_id;sensor_type;location;lat;lon;timestamp;pressure;altitude;pressure_sealevel;temperature;humidity
24892;BME280;12954;50.688;10.908;2022-12-29T00:02:23;94871.78;;;5.02;61.35
24892;BME280;12954;50.688;10.908;2022-12-29T00:04:51;94882.19;;;4.99;61.88
24892;BME280;12954;50.688;10.908;2022-12-29T00:07:20;94876.81;;;4.94;61.93
24892;BME280;12954;50.688;10.908;2022-12-29T00:09:48;94872.06;;;5.06;61.81
24892;BME280;12954;50.688;10.908;2022-12-29T00:12:17;94890.78;;;5.06;61.95
24892;BME280;12954;50.688;10.908;2022-12-29T00:14:47;94894.00;;;5.13;61.68
24892;BME280;12954;50.688;10.908;2022-12-29T00:17:32;94887.06;;;5.12;61.83
24892;BME280;12954;50.688;10.908;2022-12-29T00:20:01;94885.97;;;5.13;62.18
24892;BME280;12954;50.688;10.908;2022-12-29T00:22:47;94872.59;;;5.13;62.14
24892;BME280;12954;50.688;10.908;2022-12-29T00:25:32;94865.66;;;5.12;62.05
24892;BME280;12954;50.688;10.908;2022-12-29T00:28:18;94856.31;;;5.10;62.17
24892;BME280;12954;50.688;10.908;2022-12-29T00:31:07;94863.81;;;5.28;61.93
24892;BME280;12954;50.688;10.908;2022-12-29T00:33:58;94872.63;;;5.18;62.04
24892;BME280;12954;50.688;10.908;2022-12-29T00:36:44;94876.13;;;5.19;62.42
24892;BME280;12954;50.688;10.908;2022-12-29T00:39:14;94875.84;;;5.20;62.24
24892;BME280;12954;50.688;10.908;2022-12-29T00:42:03;94862.47;;;5.20;62.36
24892;BME280;12954;50.688;10.908;2022-12-29T00:44:49;94878.53;;;5.25;62.33
24892;BME280;12954;50.688;10.908;2022-12-29T00:47:19;94857.66;;;5.17;62.15
24892;BME280;12954;50.688;10.908;2022-12-29T00:49:47;94883.34;;;5.23;62.17
24892;BME280;12954;50.688;10.908;2022-12-29T00:52:14;94867.28;;;5.18;62.16
24892;BME280;12954;50.688;10.908;2022-12-29T00:54:43;94864.09;;;5.21;62.31
24892;BME280;12954;50.688;10.908;2022-12-29T00:57:12;94863.00;;;5.22;62.17
24892;BME280;12954;50.688;10.908;2022-12-29T00:59:41;94853.41;;;5.21;62.17
24892;BME280;12954;50.688;10.908;2022-12-29T01:02:10;94844.56;;;5.21;62.25
24892;BME280;12954;50.688;10.908;2022-12-29T01:04:40;94840.56;;;5.18;62.32
24892;BME280;12954;50.688;10.908;2022-12-29T01:07:08;94825.56;;;5.17;62.08
24892;BME280;12954;50.688;10.908;2022-12-29T01:09:37;94846.97;;;5.17;62.35
24892;BME280;12954;50.688;10.908;2022-12-29T01:12:23;94841.63;;;5.17;62.21
24892;BME280;12954;50.688;10.908;2022-12-29T01:15:06;94841.63;;;5.17;62.30
24892;BME280;12954;50.688;10.908;2022-12-29T01:17:34;94845.91;;;5.18;62.54
24892;BME280;12954;50.688;10.908;2022-12-29T01:20:06;94838.97;;;5.27;62.07
24892;BME280;12954;50.688;10.908;2022-12-29T01:22:34;94828.25;;;5.22;62.31
24892;BME280;12954;50.688;10.908;2022-12-29T01:25:03;94834.69;;;5.21;62.46
24892;BME280;12954;50.688;10.908;2022-12-29T01:27:32;94841.38;;;5.24;62.63
24892;BME280;12954;50.688;10.908;2022-12-29T01:30:01;94839.47;;;5.19;62.28
24892;BME280;12954;50.688;10.908;2022-12-29T01:32:29;94853.94;;;5.28;62.50
24892;BME280;12954;50.688;10.908;2022-12-29T01:34:58;94848.06;;;5.31;62.50
24892;BME280;12954;50.688;10.908;2022-12-29T01:37:28;94847.00;;;5.37;62.23
24892;BME280;12954;50.688;10.908;2022-12-29T01:39:56;94856.63;;;5.33;62.40
24892;BME280;12954;50.688;10.908;2022-12-29T01:42:24;94848.88;;;5.32;62.80
24892;BME280;12954;50.688;10.908;2022-12-29T01:44:55;94810.59;;;5.11;62.47
24892;BME280;12954;50.688;10.908;2022-12-29T01:47:33;94840.06;;;5.46;62.11
24892;BME280;12954;50.688;10.908;2022-12-29T01:50:06;94854.78;;;5.44;62.26
24892;BME280;12954;50.688;10.908;2022-12-29T01:52:42;94847.56;;;5.54;61.90
24892;BME280;12954;50.688;10.908;2022-12-29T01:55:12;94853.72;;;5.45;62.15
24892;BME280;12954;50.688;10.908;2022-12-29T01:57:42;94835.78;;;5.40;62.58
24892;BME280;12954;50.688;10.908;2022-12-29T02:00:13;94849.94;;;5.41;62.50
24892;BME280;12954;50.688;10.908;2022-12-29T02:02:45;94844.88;;;5.44;62.65
24892;BME280;12954;50.688;10.908;2022-12-29T02:05:19;94829.38;;;5.46;62.60
24892;BME280;12954;50.688;10.908;2022-12-29T02:07:51;94834.19;;;5.44;62.80
24892;BME280;12954;50.688;10.908;2022-12-29T02:10:22;94832.56;;;5.43;62.83
24892;BME280;12954;50.688;10.908;2022-12-29T02:12:51;94815.47;;;5.44;62.75
24892;BME280;12954;50.688;10.908;2022-12-29T02:15:25;94821.34;;;5.51;62.55
24892;BME280;12954;50.688;10.908;2022-12-29T02:18:07;94803.41;;;5.52;62.82
24892;BME280;12954;50.688;10.908;2022-12-29T02:24:06;94813.84;;;5.43;63.47
24892;BME280;12954;50.688;10.908;2022-12-29T02:29:53;94811.19;;;5.33;64.30
24892;BME280;12954;50.688;10.908;2022-12-29T02:32:27;94809.00;;;5.15;64.86
24892;BME280;12954;50.688;10.908;2022-12-29T02:35:03;94804.47;;;5.21;64.50
24892;BME280;12954;50.688;10.908;2022-12-29T02:37:39;94799.38;;;5.34;64.24
24892;BME280;12954;50.688;10.908;2022-12-29T02:40:18;94806.88;;;5.32;64.74
24892;BME280;12954;50.688;10.908;2022-12-29T02:42:57;94792.72;;;5.42;64.54
24892;BME280;12954;50.688;10.908;2022-12-29T02:45:32;94754.41;;;4.96;65.11
24892;BME280;12954;50.688;10.908;2022-12-29T02:48:09;94779.06;;;5.18;65.33
24892;BME280;12954;50.688;10.908;2022-12-29T02:50:41;94792.97;;;5.25;65.32
24892;BME280;12954;50.688;10.908;2022-12-29T02:53:15;94787.09;;;5.23;65.61
24892;BME280;12954;50.688;10.908;2022-12-29T02:55:48;94784.66;;;5.22;65.67
24892;BME280;12954;50.688;10.908;2022-12-29T02:58:17;94762.50;;;5.21;66.14
24892;BME280;12954;50.688;10.908;2022-12-29T03:00:55;94776.38;;;5.28;65.77
24892;BME280;12954;50.688;10.908;2022-12-29T03:03:40;94781.22;;;5.31;66.27
24892;BME280;12954;50.688;10.908;2022-12-29T03:06:27;94735.75;;;5.11;66.21
24892;BME280;12954;50.688;10.908;2022-12-29T03:09:03;94719.72;;;5.01;66.35
24892;BME280;12954;50.688;10.908;2022-12-29T03:11:50;94744.06;;;5.30;66.74
24892;BME280;12954;50.688;10.908;2022-12-29T03:14:43;94668.91;;;4.86;66.81
24892;BME280;12954;50.688;10.908;2022-12-29T03:20:19;94752.09;;;5.45;66.41
24892;BME280;12954;50.688;10.908;2022-12-29T03:22:51;94737.91;;;5.44;66.97
24892;BME280;12954;50.688;10.908;2022-12-29T03:25:28;94719.97;;;5.35;66.67
24892;BME280;12954;50.688;10.908;2022-12-29T03:28:00;94740.03;;;5.63;66.73
24892;BME280;12954;50.688;10.908;2022-12-29T03:30:30;94744.84;;;5.55;66.92
24892;BME280;12954;50.688;10.908;2022-12-29T03:33:03;94737.34;;;5.63;67.18
24892;BME280;12954;50.688;10.908;2022-12-29T03:35:36;94747.53;;;5.66;67.39
24892;BME280;12954;50.688;10.908;2022-12-29T03:38:10;94723.16;;;5.57;67.46
24892;BME280;12954;50.688;10.908;2022-12-29T03:40:43;94721.56;;;5.46;67.72
24892;BME280;12954;50.688;10.908;2022-12-29T03:43:13;94755.81;;;5.74;67.53
24892;BME280;12954;50.688;10.908;2022-12-29T03:45:43;94704.19;;;5.48;67.44
24892;BME280;12954;50.688;10.908;2022-12-29T03:48:12;94731.94;;;5.98;67.03
24892;BME280;12954;50.688;10.908;2022-12-29T03:50:42;94723.41;;;5.81;67.87
24892;BME280;12954;50.688;10.908;2022-12-29T03:53:11;94704.66;;;5.86;67.74
24892;BME280;12954;50.688;10.908;2022-12-29T03:55:39;94716.44;;;5.85;67.82
24892;BME280;12954;50.688;10.908;2022-12-29T03:58:07;94704.91;;;5.89;67.79
24892;BME280;12954;50.688;10.908;2022-12-29T04:00:36;94721.81;;;5.80;68.45
24892;BME280;12954;50.688;10.908;2022-12-29T04:03:04;94742.66;;;5.78;68.66
24892;BME280;12954;50.688;10.908;2022-12-29T04:05:33;94694.00;;;5.55;68.30
24892;BME280;12954;50.688;10.908;2022-12-29T04:08:03;94704.38;;;5.92;68.38
24892;BME280;12954;50.688;10.908;2022-12-29T04:10:31;94710.81;;;5.91;68.64
24892;BME280;12954;50.688;10.908;2022-12-29T04:12:59;94701.44;;;5.94;68.36
24892;BME280;12954;50.688;10.908;2022-12-29T04:15:28;94691.81;;;5.88;69.03
24892;BME280;12954;50.688;10.908;2022-12-29T04:17:56;94701.94;;;5.96;68.79
24892;BME280;12954;50.688;10.908;2022-12-29T04:20:24;94703.56;;;5.97;68.72
24892;BME280;12954;50.688;10.908;2022-12-29T04:23:11;94699.81;;;6.03;68.45
24892;BME280;12954;50.688;10.908;2022-12-29T04:25:40;94669.84;;;5.96;68.41
24892;BME280;12954;50.688;10.908;2022-12-29T04:28:08;94600.91;;;5.68;68.28
24892;BME280;12954;50.688;10.908;2022-12-29T04:30:36;94686.41;;;6.18;68.58
24892;BME280;12954;50.688;10.908;2022-12-29T04:33:05;94674.06;;;6.17;68.51
24892;BME280;12954;50.688;10.908;2022-12-29T04:35:33;94681.84;;;6.08;69.11
24892;BME280;12954;50.688;10.908;2022-12-29T04:38:02;94690.69;;;6.09;69.34
24892;BME280;12954;50.688;10.908;2022-12-29T04:40:32;94688.50;;;6.26;68.76
24892;BME280;12954;50.688;10.908;2022-12-29T04:43:00;94677.00;;;6.21;69.01
24892;BME280;12954;50.688;10.908;2022-12-29T04:45:29;94648.84;;;6.28;69.04
24892;BME280;12954;50.688;10.908;2022-12-29T04:47:57;94659.56;;;6.33;68.91
24892;BME280;12954;50.688;10.908;2022-12-29T04:50:25;94651.00;;;6.26;69.29
24892;BME280;12954;50.688;10.908;2022-12-29T04:52:54;94662.78;;;6.30;69.19
24892;BME280;12954;50.688;10.908;2022-12-29T04:55:22;94653.91;;;6.35;69.21
24892;BME280;12954;50.688;10.908;2022-12-29T04:57:52;94631.44;;;6.26;69.53
24892;BME280;12954;50.688;10.908;2022-12-29T05:00:21;94653.66;;;6.31;69.70
24892;BME280;12954;50.688;10.908;2022-12-29T05:02:50;94627.59;;;6.47;69.31
24892;BME280;12954;50.688;10.908;2022-12-29T05:05:18;94642.00;;;6.51;69.18
24892;BME280;12954;50.688;10.908;2022-12-29T05:07:47;94633.41;;;6.59;69.19
24892;BME280;12954;50.688;10.908;2022-12-29T05:10:17;94621.38;;;6.51;69.49
24892;BME280;12954;50.688;10.908;2022-12-29T05:12:45;94615.72;;;6.58;69.29
24892;BME280;12954;50.688;10.908;2022-12-29T05:15:15;94627.22;;;6.63;69.22
24892;BME280;12954;50.688;10.908;2022-12-29T05:17:44;94636.59;;;6.61;69.35
24892;BME280;12954;50.688;10.908;2022-12-29T05:20:12;94609.47;;;6.73;69.06
24892;BME280;12954;50.688;10.908;2022-12-29T05:22:41;94628.22;;;6.73;69.25
24892;BME280;12954;50.688;10.908;2022-12-29T05:25:10;94619.16;;;6.63;69.46
24892;BME280;12954;50.688;10.908;2022-12-29T05:27:38;94571.34;;;6.47;69.52
24892;BME280;12954;50.688;10.908;2022-12-29T05:30:07;94625.59;;;6.67;69.52
24892;BME280;12954;50.688;10.908;2022-12-29T05:32:37;94595.81;;;6.69;69.59
24892;BME280;12954;50.688;10.908;2022-12-29T05:35:06;94614.31;;;6.71;69.45
24892;BME280;12954;50.688;10.908;2022-12-29T05:37:35;94604.69;;;6.64;69.98
24892;BME280;12954;50.688;10.908;2022-12-29T05:40:04;94605.72;;;6.68;69.97
24892;BME280;12954;50.688;10.908;2022-12-29T05:42:33;94585.34;;;6.73;69.50
24892;BME280;12954;50.688;10.908;2022-12-29T05:45:01;94577.25;;;6.78;69.40
24892;BME280;12954;50.688;10.908;2022-12-29T05:47:30;94597.63;;;6.79;69.53
24892;BME280;12954;50.688;10.908;2022-12-29T05:50:00;94577.81;;;6.75;69.34
24892;BME280;12954;50.688;10.908;2022-12-29T05:52:28;94617.34;;;6.98;68.24
24892;BME280;12954;50.688;10.908;2022-12-29T05:54:57;94564.41;;;6.80;68.85
24892;BME280;12954;50.688;10.908;2022-12-29T05:57:25;94581.69;;;6.92;67.88
24892;BME280;12954;50.688;10.908;2022-12-29T05:59:53;94560.50;;;6.96;67.46
24892;BME280;12954;50.688;10.908;2022-12-29T06:02:22;94515.28;;;6.55;67.62
24892;BME280;12954;50.688;10.908;2022-12-29T06:04:50;94569.19;;;6.83;67.44
24892;BME280;12954;50.688;10.908;2022-12-29T06:07:20;94582.19;;;6.99;67.31
24892;BME280;12954;50.688;10.908;2022-12-29T06:09:49;94575.00;;;6.90;67.77
24892;BME280;12954;50.688;10.908;2022-12-29T06:12:17;94565.59;;;6.97;67.30
24892;BME280;12954;50.688;10.908;2022-12-29T06:14:46;94558.53;;;6.73;67.79
24892;BME280;12954;50.688;10.908;2022-12-29T06:17:14;94578.59;;;6.80;68.17
24892;BME280;12954;50.688;10.908;2022-12-29T06:19:42;94611.88;;;7.08;67.22
24892;BME280;12954;50.688;10.908;2022-12-29T06:22:11;94552.94;;;7.03;67.82
24892;BME280;12954;50.688;10.908;2022-12-29T06:24:41;94577.69;;;6.95;67.63
24892;BME280;12954;50.688;10.908;2022-12-29T06:27:09;94546.69;;;6.79;67.96
24892;BME280;12954;50.688;10.908;2022-12-29T06:29:38;94582.38;;;7.08;67.68
24892;BME280;12954;50.688;10.908;2022-12-29T06:32:07;94561.47;;;7.05;67.75
24892;BME280;12954;50.688;10.908;2022-12-29T06:34:36;94566.19;;;7.18;67.32
24892;BME280;12954;50.688;10.908;2022-12-29T06:37:04;94578.63;;;7.09;67.52
24892;BME280;12954;50.688;10.908;2022-12-29T06:39:32;94570.66;;;6.99;67.60
24892;BME280;12954;50.688;10.908;2022-12-29T06:42:02;94588.72;;;6.88;67.87
24892;BME280;12954;50.688;10.908;2022-12-29T06:44:31;94595.47;;;7.14;67.12
24892;BME280;12954;50.688;10.908;2022-12-29T06:46:59;94609.88;;;7.18;67.15
24892;BME280;12954;50.688;10.908;2022-12-29T06:49:28;94597.41;;;7.04;67.64
24892;BME280;12954;50.688;10.908;2022-12-29T06:51:56;94607.81;;;7.10;67.43
24892;BME280;12954;50.688;10.908;2022-12-29T06:54:27;94614.53;;;7.08;67.57
24892;BME280;12954;50.688;10.908;2022-12-29T06:56:55;94566.31;;;6.74;68.02
24892;BME280;12954;50.688;10.908;2022-12-29T06:59:25;94607.25;;;7.13;67.37
24892;BME280;12954;50.688;10.908;2022-12-29T07:01:53;94618.78;;;7.14;67.37
24892;BME280;12954;50.688;10.908;2022-12-29T07:04:22;94617.97;;;7.13;67.59
24892;BME280;12954;50.688;10.908;2022-12-29T07:06:50;94622.84;;;7.11;67.58
24892;BME280;12954;50.688;10.908;2022-12-29T07:09:19;94609.75;;;7.05;67.85
24892;BME280;12954;50.688;10.908;2022-12-29T07:11:47;94632.50;;;7.12;67.68
24892;BME280;12954;50.688;10.908;2022-12-29T07:14:16;94597.56;;;7.17;67.55
24892;BME280;12954;50.688;10.908;2022-12-29T07:16:45;94617.19;;;7.13;67.79
24892;BME280;12954;50.688;10.908;2022-12-29T07:19:14;94595.97;;;7.16;67.82
24892;BME280;12954;50.688;10.908;2022-12-29T07:21:42;94585.97;;;6.93;68.21
24892;BME280;12954;50.688;10.908;2022-12-29T07:24:11;94604.13;;;7.06;68.54
24892;BME280;12954;50.688;10.908;2022-12-29T07:26:39;94617.75;;;7.10;68.56
24892;BME280;12954;50.688;10.908;2022-12-29T07:29:08;94617.28;;;7.03;68.88
24892;BME280;12954;50.688;10.908;2022-12-29T07:31:36;94624.47;;;7.07;68.78
24892;BME280;12954;50.688;10.908;2022-12-29T07:34:08;94603.06;;;7.02;68.25
24892;BME280;12954;50.688;10.908;2022-12-29T07:36:36;94618.84;;;7.04;69.18
24892;BME280;12954;50.688;10.908;2022-12-29T07:39:04;94628.38;;;7.20;68.29
24892;BME280;12954;50.688;10.908;2022-12-29T07:41:33;94669.19;;;7.46;67.33
24892;BME280;12954;50.688;10.908;2022-12-29T07:44:01;94643.00;;;7.38;67.48
24892;BME280;12954;50.688;10.908;2022-12-29T07:46:30;94636.06;;;7.32;67.54
24892;BME280;12954;50.688;10.908;2022-12-29T07:49:19;94639.13;;;7.20;67.88
24892;BME280;12954;50.688;10.908;2022-12-29T07:51:48;94610.69;;;7.19;66.57
24892;BME280;12954;50.688;10.908;2022-12-29T07:54:16;94645.44;;;7.34;66.90
24892;BME280;12954;50.688;10.908;2022-12-29T07:56:46;94646.13;;;7.16;67.39
24892;BME280;12954;50.688;10.908;2022-12-29T07:59:15;94655.66;;;7.32;66.78
24892;BME280;12954;50.688;10.908;2022-12-29T08:01:43;94616.41;;;7.07;67.04
24892;BME280;12954;50.688;10.908;2022-12-29T08:04:12;94667.75;;;7.24;67.17
24892;BME280;12954;50.688;10.908;2022-12-29T08:06:42;94648.72;;;7.26;67.20
24892;BME280;12954;50.688;10.908;2022-12-29T08:09:15;94618.28;;;7.07;66.53
24892;BME280;12954;50.688;10.908;2022-12-29T08:11:48;94658.22;;;7.42;65.92
24892;BME280;12954;50.688;10.908;2022-12-29T08:14:17;94650.56;;;7.31;66.52
24892;BME280;12954;50.688;10.908;2022-12-29T08:16:45;94645.78;;;7.22;66.94
24892;BME280;12954;50.688;10.908;2022-12-29T08:19:14;94630.00;;;7.21;67.56
24892;BME280;12954;50.688;10.908;2022-12-29T08:21:44;94672.75;;;7.41;67.50
24892;BME280;12954;50.688;10.908;2022-12-29T08:24:12;94609.75;;;7.05;67.68
24892;BME280;12954;50.688;10.908;2022-12-29T08:26:41;94659.69;;;7.58;66.99
24892;BME280;12954;50.688;10.908;2022-12-29T08:29:09;94647.97;;;7.49;66.97
24892;BME280;12954;50.688;10.908;2022-12-29T08:31:38;94643.28;;;7.60;66.72
24892;BME280;12954;50.688;10.908;2022-12-29T08:34:06;94654.16;;;7.78;65.64
24892;BME280;12954;50.688;10.908;2022-12-29T08:36:34;94674.66;;;7.69;66.00
24892;BME280;12954;50.688;10.908;2022-12-29T08:39:04;94652.22;;;7.55;65.82
24892;BME280;12954;50.688;10.908;2022-12-29T08:41:33;94640.00;;;7.68;66.11
24892;BME280;12954;50.688;10.908;2022-12-29T08:44:01;94630.13;;;7.63;65.82
24892;BME280;12954;50.688;10.908;2022-12-29T08:46:30;94609.28;;;7.55;66.29
24892;BME280;12954;50.688;10.908;2022-12-29T08:48:58;94652.84;;;7.42;66.95
24892;BME280;12954;50.688;10.908;2022-12-29T08:51:27;94665.72;;;7.45;66.77
24892;BME280;12954;50.688;10.908;2022-12-29T08:53:55;94663.50;;;7.52;66.58
24892;BME280;12954;50.688;10.908;2022-12-29T08:56:25;94650.72;;;7.44;66.94
24892;BME280;12954;50.688;10.908;2022-12-29T08:58:54;94644.53;;;7.44;67.26
24892;BME280;12954;50.688;10.908;2022-12-29T09:01:22;94673.13;;;7.58;66.69
24892;BME280;12954;50.688;10.908;2022-12-29T09:03:51;94650.66;;;7.49;67.03
24892;BME280;12954;50.688;10.908;2022-12-29T09:06:40;94614.88;;;7.59;66.43
24892;BME280;12954;50.688;10.908;2022-12-29T09:09:09;94671.00;;;7.55;66.63
24892;BME280;12954;50.688;10.908;2022-12-29T09:11:39;94676.78;;;7.67;66.18
24892;BME280;12954;50.688;10.908;2022-12-29T09:14:08;94662.47;;;7.48;66.84
24892;BME280;12954;50.688;10.908;2022-12-29T09:16:37;94686.91;;;7.47;67.07
24892;BME280;12954;50.688;10.908;2022-12-29T09:19:05;94674.72;;;7.59;66.71
24892;BME280;12954;50.688;10.908;2022-12-29T09:21:34;94696.88;;;7.41;67.46
24892;BME280;12954;50.688;10.908;2022-12-29T09:24:02;94692.31;;;7.42;67.60
24892;BME280;12954;50.688;10.908;2022-12-29T09:26:30;94694.66;;;7.48;67.28
24892;BME280;12954;50.688;10.908;2022-12-29T09:29:00;94691.97;;;7.53;67.24
24892;BME280;12954;50.688;10.908;2022-12-29T09:31:29;94686.25;;;7.60;67.00
24892;BME280;12954;50.688;10.908;2022-12-29T09:33:57;94683.03;;;7.58;67.01
24892;BME280;12954;50.688;10.908;2022-12-29T09:36:25;94705.72;;;7.75;66.05
24892;BME280;12954;50.688;10.908;2022-12-29T09:38:54;94695.66;;;7.57;66.61
24892;BME280;12954;50.688;10.908;2022-12-29T09:41:27;94711.34;;;7.79;65.75
24892;BME280;12954;50.688;10.908;2022-12-29T09:44:05;94686.44;;;7.73;65.73
24892;BME280;12954;50.688;10.908;2022-12-29T09:46:38;94688.91;;;7.60;66.55
24892;BME280;12954;50.688;10.908;2022-12-29T09:49:17;94718.63;;;7.68;66.19
24892;BME280;12954;50.688;10.908;2022-12-29T09:51:52;94699.47;;;7.85;65.61
24892;BME280;12954;50.688;10.908;2022-12-29T09:54:41;94691.69;;;7.84;65.63
24892;BME280;12954;50.688;10.908;2022-12-29T09:57:27;94718.19;;;7.90;64.95
24892;BME280;12954;50.688;10.908;2022-12-29T10:00:03;94674.19;;;7.86;64.95
24892;BME280;12954;50.688;10.908;2022-12-29T10:02:37;94708.84;;;7.88;65.05
24892;BME280;12954;50.688;10.908;2022-12-29T10:05:19;94721.19;;;7.89;64.90
24892;BME280;12954;50.688;10.908;2022-12-29T10:07:55;94699.69;;;7.89;64.99
24892;BME280;12954;50.688;10.908;2022-12-29T10:10:33;94705.00;;;7.94;64.87
24892;BME280;12954;50.688;10.908;2022-12-29T10:13:16;94701.28;;;7.90;65.02
24892;BME280;12954;50.688;10.908;2022-12-29T10:15:59;94676.19;;;7.75;65.02
24892;BME280;12954;50.688;10.908;2022-12-29T10:18:42;94697.41;;;8.01;64.27
24892;BME280;12954;50.688;10.908;2022-12-29T10:21:20;94698.16;;;8.06;64.17
24892;BME280;12954;50.688;10.908;2022-12-29T10:23:52;94686.97;;;7.99;64.28
24892;BME280;12954;50.688;10.908;2022-12-29T10:26:23;94677.59;;;7.97;64.54
24892;BME280;12954;50.688;10.908;2022-12-29T10:28:57;94682.31;;;8.05;64.07
24892;BME280;12954;50.688;10.908;2022-12-29T10:31:33;94686.78;;;7.91;64.41
24892;BME280;12954;50.688;10.908;2022-12-29T10:34:15;94674.91;;;7.97;64.58
24892;BME280;12954;50.688;10.908;2022-12-29T10:36:48;94695.00;;;7.99;64.04
24892;BME280;12954;50.688;10.908;2022-12-29T10:39:22;94681.50;;;8.09;63.76
24892;BME280;12954;50.688;10.908;2022-12-29T10:41:55;94719.47;;;8.21;62.99
24892;BME280;12954;50.688;10.908;2022-12-29T10:44:28;94662.97;;;8.08;63.12
24892;BME280;12954;50.688;10.908;2022-12-29T10:47:03;94695.59;;;8.20;62.81
24892;BME280;12954;50.688;10.908;2022-12-29T10:49:38;94686.56;;;8.11;63.04
24892;BME280;12954;50.688;10.908;2022-12-29T10:52:08;94598.91;;;7.72;63.00
24892;BME280;12954;50.688;10.908;2022-12-29T10:54:43;94708.69;;;8.26;62.26
24892;BME280;12954;50.688;10.908;2022-12-29T10:57:18;94682.56;;;8.32;62.25
24892;BME280;12954;50.688;10.908;2022-12-29T10:59:50;94628.69;;;8.00;62.42
24892;BME280;12954;50.688;10.908;2022-12-29T11:02:35;94685.06;;;8.23;62.42
24892;BME280;12954;50.688;10.908;2022-12-29T11:05:17;94413.16;;;6.57;61.88
24892;BME280;12954;50.688;10.908;2022-12-29T11:07:48;94675.34;;;8.04;62.99
24892;BME280;12954;50.688;10.908;2022-12-29T11:10:28;94613.72;;;7.41;63.06
24892;BME280;12954;50.688;10.908;2022-12-29T11:13:00;94672.38;;;8.29;62.09
24892;BME280;12954;50.688;10.908;2022-12-29T11:15:38;94697.31;;;8.34;61.73
24892;BME280;12954;50.688;10.908;2022-12-29T11:18:19;94685.19;;;8.13;62.38
24892;BME280;12954;50.688;10.908;2022-12-29T11:20:50;94700.25;;;8.33;62.26
24892;BME280;12954;50.688;10.908;2022-12-29T11:23:26;94700.06;;;8.29;62.57
24892;BME280;12954;50.688;10.908;2022-12-29T11:26:12;94720.41;;;8.35;62.38
24892;BME280;12954;50.688;10.908;2022-12-29T11:28:43;94689.47;;;8.38;62.04
24892;BME280;12954;50.688;10.908;2022-12-29T11:31:16;94692.72;;;8.35;62.01
24892;BME280;12954;50.688;10.908;2022-12-29T11:33:48;94684.84;;;8.20;62.17
24892;BME280;12954;50.688;10.908;2022-12-29T11:36:19;94716.78;;;8.21;62.71
24892;BME280;12954;50.688;10.908;2022-12-29T11:38:50;94697.78;;;8.18;63.02
24892;BME280;12954;50.688;10.908;2022-12-29T11:41:23;94704.13;;;8.27;63.03
24892;BME280;12954;50.688;10.908;2022-12-29T11:43:53;94671.56;;;8.28;62.25
24892;BME280;12954;50.688;10.908;2022-12-29T11:46:28;94707.81;;;8.31;63.25
24892;BME280;12954;50.688;10.908;2022-12-29T11:49:00;94622.56;;;7.65;63.12
24892;BME280;12954;50.688;10.908;2022-12-29T11:51:36;94594.06;;;7.46;63.33
24892;BME280;12954;50.688;10.908;2022-12-29T11:54:13;94737.91;;;8.09;63.85
24892;BME280;12954;50.688;10.908;2022-12-29T11:56:45;94734.34;;;8.14;63.64
24892;BME280;12954;50.688;10.908;2022-12-29T11:59:36;94708.53;;;8.18;63.81
24892;BME280;12954;50.688;10.908;2022-12-29T12:05:27;94746.19;;;7.84;64.33
24892;BME280;12954;50.688;10.908;2022-12-29T12:08:02;94699.56;;;7.41;64.89
24892;BME280;12954;50.688;10.908;2022-12-29T12:10:38;94736.47;;;7.54;65.39
24892;BME280;12954;50.688;10.908;2022-12-29T12:13:18;94703.84;;;7.42;65.16
24892;BME280;12954;50.688;10.908;2022-12-29T12:15:52;94727.50;;;7.69;65.21
24892;BME280;12954;50.688;10.908;2022-12-29T12:18:30;94732.56;;;7.75;64.63
24892;BME280;12954;50.688;10.908;2022-12-29T12:21:08;94742.13;;;7.53;65.49
24892;BME280;12954;50.688;10.908;2022-12-29T12:23:51;94750.31;;;7.38;66.16
24892;BME280;12954;50.688;10.908;2022-12-29T12:26:27;94756.75;;;7.37;66.53
24892;BME280;12954;50.688;10.908;2022-12-29T12:29:03;94755.41;;;7.34;66.58
24892;BME280;12954;50.688;10.908;2022-12-29T12:31:43;94747.88;;;7.36;66.40
24892;BME280;12954;50.688;10.908;2022-12-29T12:34:17;94741.75;;;7.31;66.69
24892;BME280;12954;50.688;10.908;2022-12-29T12:37:06;94734.44;;;7.41;65.90
24892;BME280;12954;50.688;10.908;2022-12-29T12:39:46;94741.19;;;7.34;65.84
24892;BME280;12954;50.688;10.908;2022-12-29T12:42:28;94723.59;;;7.22;66.13
24892;BME280;12954;50.688;10.908;2022-12-29T12:45:17;94723.84;;;7.26;66.09
24892;BME280;12954;50.688;10.908;2022-12-29T12:48:00;94715.19;;;7.34;66.05
24892;BME280;12954;50.688;10.908;2022-12-29T12:50:47;94647.84;;;7.02;65.88
24892;BME280;12954;50.688;10.908;2022-12-29T12:53:51;94696.13;;;7.36;65.65
24892;BME280;12954;50.688;10.908;2022-12-29T12:56:37;94687.88;;;7.27;65.82
24892;BME280;12954;50.688;10.908;2022-12-29T12:59:19;94718.47;;;7.26;65.75
24892;BME280;12954;50.688;10.908;2022-12-29T13:01:57;94660.66;;;7.10;65.45
24892;BME280;12954;50.688;10.908;2022-12-29T13:04:45;94690.59;;;7.22;65.46
24892;BME280;12954;50.688;10.908;2022-12-29T13:07:25;94691.09;;;7.29;64.93
24892;BME280;12954;50.688;10.908;2022-12-29T13:10:08;94661.53;;;7.00;65.21
24892;BME280;12954;50.688;10.908;2022-12-29T13:12:48;94672.25;;;7.34;64.70
24892;BME280;12954;50.688;10.908;2022-12-29T13:15:30;94705.66;;;7.18;65.01
24892;BME280;12954;50.688;10.908;2022-12-29T13:18:06;94697.41;;;7.09;65.23
24892;BME280;12954;50.688;10.908;2022-12-29T13:20:44;94703.94;;;7.32;64.26
24892;BME280;12954;50.688;10.908;2022-12-29T13:23:20;94713.66;;;7.23;63.76
24892;BME280;12954;50.688;10.908;2022-12-29T13:26:02;94726.66;;;7.01;64.74
24892;BME280;12954;50.688;10.908;2022-12-29T13:28:39;94713.75;;;7.08;64.43
24892;BME280;12954;50.688;10.908;2022-12-29T13:31:14;94723.41;;;7.09;64.08
24892;BME280;12954;50.688;10.908;2022-12-29T13:33:50;94722.06;;;7.11;63.93
24892;BME280;12954;50.688;10.908;2022-12-29T13:36:26;94729.34;;;7.01;64.32
24892;BME280;12954;50.688;10.908;2022-12-29T13:39:02;94702.06;;;6.94;63.36
24892;BME280;12954;50.688;10.908;2022-12-29T13:41:37;94734.09;;;7.14;62.82
24892;BME280;12954;50.688;10.908;2022-12-29T13:44:09;94711.13;;;7.03;63.14